Time;durP1;ratioP1;P1;durP2;ratioP2;P2;SDS_P1;SDS_P2;PMS_P1;PMS_P2;Temp;Humidity;BMP_temperature;BMP_pressure;BME280_temperature;BME280_humidity;BME280_pressure;Samples;Min_cycle;Max_cycle;Signal;HPM_P1;HPM_P2
2021/01/10 00:00:08;;;;;;;46.35;24.65;;;-0.80;99.90;;;;;;5012163;28;20029;-74
2021/01/10 00:02:34;;;;;;;49.38;24.25;;;-0.80;99.90;;;;;;5012371;28;20022;-74
2021/01/10 00:05:01;;;;;;;47.65;24.30;;;-0.80;99.90;;;;;;5011982;28;20037;-73
2021/01/10 00:07:27;;;;;;;51.08;24.80;;;-0.80;99.90;;;;;;5012248;28;20487;-74
2021/01/10 00:09:53;;;;;;;49.60;25.13;;;-0.80;99.90;;;;;;5012151;28;20034;-72
2021/01/10 00:12:26;;;;;;;46.13;23.55;;;-0.80;99.90;;;;;;4994486;28;20125;-72
2021/01/10 00:14:53;;;;;;;45.35;23.70;;;-0.80;99.90;;;;;;5012008;28;20049;-72
2021/01/10 00:17:19;;;;;;;51.53;25.88;;;-0.80;99.90;;;;;;5011953;28;20025;-73
2021/01/10 00:19:45;;;;;;;49.30;24.83;;;-0.80;99.90;;;;;;5012095;28;20029;-73
2021/01/10 00:22:16;;;;;;;46.03;23.75;;;-0.80;99.90;;;;;;5012360;28;20030;-73
2021/01/10 00:24:43;;;;;;;45.60;24.15;;;-0.80;99.90;;;;;;5011881;28;20030;-73
2021/01/10 00:27:14;;;;;;;52.85;26.40;;;-0.90;99.90;;;;;;5012070;28;20121;-73
2021/01/10 00:29:44;;;;;;;45.78;24.02;;;-0.90;99.90;;;;;;5011963;28;20093;-73
2021/01/10 00:32:11;;;;;;;45.35;24.52;;;-0.80;99.90;;;;;;4994252;28;20499;-73
2021/01/10 00:34:36;;;;;;;46.92;23.38;;;-0.90;99.90;;;;;;4994404;28;20480;-72
2021/01/10 00:37:08;;;;;;;49.40;24.67;;;-0.80;99.90;;;;;;5011826;28;20078;-73
2021/01/10 00:39:34;;;;;;;48.05;25.05;;;-0.90;99.90;;;;;;5011900;28;20026;-73
2021/01/10 00:42:15;;;;;;;47.95;23.58;;;-0.90;99.90;;;;;;5014955;28;20104;-73
2021/01/10 00:44:42;;;;;;;46.13;23.42;;;-0.90;99.90;;;;;;5015584;28;20030;-73
2021/01/10 00:47:07;;;;;;;48.85;24.70;;;-0.90;99.90;;;;;;5015528;28;20026;-73
2021/01/10 00:49:34;;;;;;;50.00;24.60;;;-0.90;99.90;;;;;;4997963;28;20144;-74
2021/01/10 00:52:00;;;;;;;51.30;24.92;;;-0.90;99.90;;;;;;5015893;28;20026;-73
2021/01/10 00:54:27;;;;;;;49.22;23.92;;;-0.90;99.90;;;;;;4998411;28;20033;-73
2021/01/10 00:56:53;;;;;;;48.85;24.67;;;-0.90;99.90;;;;;;5015645;28;20021;-73
2021/01/10 00:59:19;;;;;;;48.25;24.13;;;-0.90;99.90;;;;;;5015418;28;20033;-73
2021/01/10 01:01:46;;;;;;;48.22;24.90;;;-0.90;99.90;;;;;;5015367;28;20077;-73
2021/01/10 01:04:12;;;;;;;49.13;24.08;;;-0.90;99.90;;;;;;5015599;28;20546;-73
2021/01/10 01:06:38;;;;;;;50.55;24.50;;;-0.90;99.90;;;;;;4997913;28;20034;-73
2021/01/10 01:09:04;;;;;;;45.50;24.17;;;-0.90;99.90;;;;;;5015172;28;20026;-73
2021/01/10 01:11:34;;;;;;;46.13;23.67;;;-0.90;99.90;;;;;;5015081;28;20037;-73
2021/01/10 01:14:00;;;;;;;47.70;24.17;;;-0.90;99.90;;;;;;4997296;28;20491;-73
2021/01/10 01:16:26;;;;;;;45.80;23.15;;;-0.90;99.90;;;;;;5015427;28;20081;-73
2021/01/10 01:18:52;;;;;;;48.20;23.85;;;-0.90;99.90;;;;;;5015198;28;20025;-73
2021/01/10 01:21:20;;;;;;;42.47;23.25;;;-0.90;99.90;;;;;;5015043;28;20026;-73
2021/01/10 01:23:46;;;;;;;46.55;24.02;;;-0.90;99.90;;;;;;5015079;28;20053;-73
2021/01/10 01:26:16;;;;;;;46.35;22.90;;;-0.90;99.90;;;;;;5014901;28;20114;-73
2021/01/10 01:28:43;;;;;;;45.38;22.92;;;-0.90;99.90;;;;;;5014996;28;20018;-73
2021/01/10 01:31:10;;;;;;;49.22;25.85;;;-0.80;99.90;;;;;;4997282;28;20536;-73
2021/01/10 01:33:37;;;;;;;49.92;24.13;;;-0.90;99.90;;;;;;5015043;28;20022;-73
2021/01/10 01:36:03;;;;;;;49.05;23.38;;;-0.90;99.90;;;;;;5015051;28;20022;-73
2021/01/10 01:38:28;;;;;;;50.90;25.90;;;-0.90;99.90;;;;;;4997328;28;20116;-73
2021/01/10 01:41:01;;;;;;;46.95;24.45;;;-0.80;99.90;;;;;;5014776;28;20146;-73
2021/01/10 01:43:27;;;;;;;51.40;27.27;;;-0.80;99.90;;;;;;4997032;28;20548;-73
2021/01/10 01:45:53;;;;;;;48.97;25.13;;;-0.80;99.90;;;;;;4996933;28;20377;-73
2021/01/10 01:48:20;;;;;;;52.72;25.98;;;-0.80;99.90;;;;;;4996959;28;20045;-72
2021/01/10 01:50:45;;;;;;;48.92;24.95;;;-0.90;99.90;;;;;;5014380;28;20061;-73
2021/01/10 01:53:11;;;;;;;46.28;24.70;;;-0.90;99.90;;;;;;5014078;28;20786;-73
2021/01/10 01:55:38;;;;;;;46.17;24.60;;;-0.90;99.90;;;;;;5014554;28;20033;-74
2021/01/10 01:58:06;;;;;;;47.88;24.30;;;-0.80;99.90;;;;;;5014313;28;20026;-74
2021/01/10 02:00:32;;;;;;;49.85;25.13;;;-0.80;99.90;;;;;;5014548;28;20045;-72
2021/01/10 02:02:58;;;;;;;48.90;24.33;;;-0.80;99.90;;;;;;4996809;28;20365;-72
2021/01/10 02:05:28;;;;;;;48.40;24.52;;;-0.80;99.90;;;;;;5014264;28;20064;-73
2021/01/10 02:08:08;;;;;;;48.05;24.13;;;-0.80;99.90;;;;;;5014575;28;20038;-72
2021/01/10 02:10:40;;;;;;;45.67;24.40;;;-0.80;99.90;;;;;;4996778;28;20484;-72
2021/01/10 02:13:14;;;;;;;53.72;25.58;;;-0.80;99.90;;;;;;5014125;28;20022;-73
2021/01/10 02:15:41;;;;;;;46.20;23.38;;;-0.80;99.90;;;;;;5013872;28;20050;-72
2021/01/10 02:18:08;;;;;;;50.67;24.38;;;-0.80;99.90;;;;;;4996468;28;20466;-72
2021/01/10 02:20:39;;;;;;;45.75;23.73;;;-0.80;99.90;;;;;;5013872;28;20089;-72
2021/01/10 02:23:16;;;;;;;46.00;23.58;;;-0.70;99.90;;;;;;5013815;28;20022;-72
2021/01/10 02:25:44;;;;;;;41.80;22.63;;;-0.70;99.90;;;;;;5013717;28;20026;-72
2021/01/10 02:28:10;;;;;;;43.88;23.23;;;-0.70;99.90;;;;;;4996161;28;20030;-73
2021/01/10 02:30:42;;;;;;;48.63;24.33;;;-0.70;99.90;;;;;;5013689;28;20105;-73
2021/01/10 02:33:20;;;;;;;48.40;23.35;;;-0.70;99.90;;;;;;4996025;28;20018;-72
2021/01/10 02:35:48;;;;;;;45.35;22.55;;;-0.70;99.90;;;;;;5013596;28;20372;-73
2021/01/10 02:38:32;;;;;;;47.47;23.88;;;-0.70;99.90;;;;;;5013730;28;20022;-71
2021/01/10 02:41:16;;;;;;;43.08;22.83;;;-0.70;99.90;;;;;;4996110;28;20022;-72
2021/01/10 02:44:10;;;;;;;49.05;24.70;;;-0.70;99.90;;;;;;5013387;28;20414;-72
2021/01/10 02:46:37;;;;;;;50.05;24.38;;;-0.70;99.90;;;;;;4991585;28;20042;-73
2021/01/10 02:49:03;;;;;;;45.75;23.65;;;-0.70;99.90;;;;;;5013371;28;20022;-72
2021/01/10 02:51:29;;;;;;;47.08;24.13;;;-0.70;99.90;;;;;;4995594;28;20034;-72
2021/01/10 02:53:55;;;;;;;46.05;23.77;;;-0.70;99.90;;;;;;5013234;28;20076;-72
2021/01/10 02:56:23;;;;;;;47.80;24.40;;;-0.70;99.90;;;;;;5013967;28;20046;-72
2021/01/10 02:58:55;;;;;;;49.63;24.33;;;-0.70;99.90;;;;;;5013361;28;20503;-72
2021/01/10 03:01:23;;;;;;;44.97;23.50;;;-0.70;99.90;;;;;;5013151;28;20018;-72
2021/01/10 03:03:49;;;;;;;50.38;24.42;;;-0.70;99.90;;;;;;5012132;28;20191;-72
2021/01/10 03:06:15;;;;;;;50.15;24.52;;;-0.70;99.90;;;;;;5012998;28;20527;-72
2021/01/10 03:08:41;;;;;;;47.05;25.00;;;-0.70;99.90;;;;;;5013132;28;20060;-73
2021/01/10 03:11:07;;;;;;;50.60;24.27;;;-0.70;99.90;;;;;;5012928;28;20058;-73
2021/01/10 03:13:33;;;;;;;47.47;23.25;;;-0.70;99.90;;;;;;5012909;28;20026;-73
2021/01/10 03:16:00;;;;;;;47.33;24.63;;;-0.70;99.90;;;;;;5012729;28;20072;-72
2021/01/10 03:18:26;;;;;;;43.92;23.08;;;-0.70;99.90;;;;;;5012789;28;20018;-72
2021/01/10 03:20:52;;;;;;;51.85;24.83;;;-0.70;99.90;;;;;;5012713;28;20490;-73
2021/01/10 03:23:18;;;;;;;47.80;23.80;;;-0.70;99.90;;;;;;5012732;28;20428;-72
2021/01/10 03:25:44;;;;;;;46.50;25.13;;;-0.70;99.90;;;;;;5012748;28;20045;-73
2021/01/10 03:28:10;;;;;;;47.20;24.38;;;-0.70;99.90;;;;;;4995078;28;20105;-73
2021/01/10 03:30:36;;;;;;;45.63;24.40;;;-0.70;99.90;;;;;;5012604;28;20022;-73
2021/01/10 03:33:03;;;;;;;48.55;24.50;;;-0.70;99.90;;;;;;5012637;28;20029;-74
2021/01/10 03:35:30;;;;;;;42.75;22.88;;;-0.70;99.90;;;;;;5012535;28;20033;-73
2021/01/10 03:37:56;;;;;;;45.53;24.17;;;-0.70;99.90;;;;;;4995059;28;20036;-73
2021/01/10 03:40:21;;;;;;;48.13;25.45;;;-0.70;99.90;;;;;;5012654;28;20026;-72
2021/01/10 03:42:47;;;;;;;44.00;24.85;;;-0.70;99.90;;;;;;5012682;28;20030;-73
2021/01/10 03:45:16;;;;;;;51.42;25.75;;;-0.70;99.90;;;;;;5012752;28;20073;-73
2021/01/10 03:47:42;;;;;;;49.70;25.27;;;-0.70;99.90;;;;;;5012457;28;20060;-72
2021/01/10 03:50:08;;;;;;;52.88;25.90;;;-0.70;99.90;;;;;;5012546;28;20026;-72
2021/01/10 03:52:34;;;;;;;50.15;24.58;;;-0.70;99.90;;;;;;5012410;28;20030;-73
2021/01/10 03:55:01;;;;;;;46.83;24.58;;;-0.70;99.90;;;;;;5012523;28;20084;-73
2021/01/10 03:57:27;;;;;;;51.97;25.85;;;-0.70;99.90;;;;;;5012870;28;20018;-73
2021/01/10 03:59:52;;;;;;;50.47;24.65;;;-0.60;99.90;;;;;;5012483;28;20701;-72
2021/01/10 04:02:18;;;;;;;48.38;26.08;;;-0.60;99.90;;;;;;4994824;28;20033;-72
2021/01/10 04:04:44;;;;;;;50.88;25.05;;;-0.50;99.90;;;;;;5012144;28;20029;-72
2021/01/10 04:07:09;;;;;;;50.22;24.65;;;-0.50;99.90;;;;;;5011964;28;20041;-72
2021/01/10 04:09:35;;;;;;;47.05;24.35;;;-0.40;99.90;;;;;;5012077;28;20034;-73
2021/01/10 04:12:01;;;;;;;49.60;25.60;;;-0.40;99.90;;;;;;5011972;28;20061;-73
2021/01/10 04:14:27;;;;;;;44.90;23.63;;;-0.30;99.90;;;;;;4994286;28;20400;-72
2021/01/10 04:16:53;;;;;;;47.10;24.92;;;-0.30;99.90;;;;;;5017973;28;20022;-72
2021/01/10 04:19:20;;;;;;;47.20;24.65;;;-0.20;99.90;;;;;;5001045;28;20025;-72
2021/01/10 04:21:46;;;;;;;48.80;23.75;;;-0.20;99.90;;;;;;5018432;28;20104;-72
2021/01/10 04:24:12;;;;;;;46.00;23.88;;;-0.20;99.90;;;;;;5001194;28;20037;-72
2021/01/10 04:26:44;;;;;;;45.22;23.63;;;-0.30;99.90;;;;;;5018542;28;20499;-71
2021/01/10 04:29:10;;;;;;;49.22;24.33;;;-0.30;99.90;;;;;;5000917;28;20480;-72
2021/01/10 04:31:35;;;;;;;46.90;25.05;;;-0.30;99.90;;;;;;5018396;28;20037;-72
2021/01/10 04:34:01;;;;;;;50.35;24.63;;;-0.30;99.90;;;;;;5018402;28;20022;-71
2021/01/10 04:36:28;;;;;;;49.78;24.80;;;-0.30;99.90;;;;;;5018361;28;20048;-71
2021/01/10 04:38:56;;;;;;;45.83;24.92;;;-0.30;99.90;;;;;;5018348;28;20104;-71
2021/01/10 04:41:23;;;;;;;48.65;24.42;;;-0.30;99.90;;;;;;5018386;28;20158;-71
2021/01/10 04:43:49;;;;;;;49.15;25.17;;;-0.30;99.90;;;;;;5018651;28;20034;-72
2021/01/10 04:46:15;;;;;;;44.97;23.48;;;-0.30;99.90;;;;;;5018178;28;20101;-71
2021/01/10 04:48:42;;;;;;;47.45;24.35;;;-0.30;99.90;;;;;;5018340;28;20036;-73
2021/01/10 04:51:09;;;;;;;47.92;25.08;;;-0.20;99.90;;;;;;5018229;28;20029;-73
2021/01/10 04:53:37;;;;;;;45.17;24.27;;;-0.20;99.90;;;;;;5018417;28;20380;-73
2021/01/10 04:56:05;;;;;;;48.08;23.45;;;-0.10;99.90;;;;;;5001083;28;20520;-72
2021/01/10 04:58:35;;;;;;;47.33;24.95;;;-0.10;99.90;;;;;;5000829;28;20057;-72
2021/01/10 05:01:02;;;;;;;48.83;24.85;;;0.00;99.90;;;;;;5018295;28;20474;-73
2021/01/10 05:03:31;;;;;;;49.38;25.77;;;0.10;99.90;;;;;;5018336;28;20029;-72
2021/01/10 05:05:57;;;;;;;53.75;25.70;;;0.10;99.90;;;;;;5018238;28;20469;-72
2021/01/10 05:08:25;;;;;;;51.20;25.73;;;0.20;99.90;;;;;;5018407;28;20038;-73
2021/01/10 05:10:51;;;;;;;51.08;25.88;;;0.20;99.90;;;;;;5017868;28;20090;-71
2021/01/10 05:13:17;;;;;;;50.42;24.77;;;0.30;99.90;;;;;;5018023;28;20108;-72
2021/01/10 05:15:44;;;;;;;47.80;25.23;;;0.30;99.90;;;;;;5017966;28;20444;-73
2021/01/10 05:18:10;;;;;;;48.75;24.20;;;0.30;99.90;;;;;;5018134;28;20045;-73
2021/01/10 05:20:36;;;;;;;47.35;23.90;;;0.30;99.90;;;;;;5018035;28;20022;-73
2021/01/10 05:23:02;;;;;;;47.92;25.17;;;0.30;99.90;;;;;;5017942;28;20030;-73
2021/01/10 05:25:29;;;;;;;51.80;26.38;;;0.30;99.90;;;;;;5000051;28;20468;-73
2021/01/10 05:27:56;;;;;;;48.45;25.15;;;0.30;99.90;;;;;;5014575;28;20022;-73
2021/01/10 05:30:33;;;;;;;45.53;24.02;;;0.40;99.90;;;;;;5014731;28;20033;-72
2021/01/10 05:33:04;;;;;;;46.00;25.38;;;0.40;99.90;;;;;;5014622;28;20925;-73
2021/01/10 05:35:50;;;;;;;49.53;25.95;;;0.40;99.90;;;;;;5014695;28;20072;-73
2021/01/10 05:38:33;;;;;;;48.08;24.60;;;0.40;99.90;;;;;;5014827;28;20030;-73
2021/01/10 05:41:02;;;;;;;47.63;23.92;;;0.50;99.90;;;;;;5014109;28;20096;-72
2021/01/10 05:43:28;;;;;;;48.63;25.48;;;0.50;99.90;;;;;;5014442;28;20022;-73
2021/01/10 05:45:55;;;;;;;49.58;24.63;;;0.50;99.90;;;;;;5014576;28;20030;-72
2021/01/10 05:48:21;;;;;;;46.80;23.75;;;0.50;99.90;;;;;;4997012;28;20032;-73
2021/01/10 05:50:51;;;;;;;47.83;25.27;;;0.60;99.90;;;;;;5014186;28;20022;-73
2021/01/10 05:53:24;;;;;;;45.65;23.73;;;0.60;99.90;;;;;;5014596;28;20080;-72
2021/01/10 05:56:00;;;;;;;48.03;25.27;;;0.60;99.90;;;;;;5014222;28;20491;-72
2021/01/10 05:58:32;;;;;;;51.38;26.65;;;0.70;99.90;;;;;;5014109;28;20501;-73
2021/01/10 06:01:13;;;;;;;46.63;23.40;;;0.70;99.90;;;;;;5014275;28;20492;-73
2021/01/10 06:03:39;;;;;;;47.20;25.10;;;0.70;99.90;;;;;;5014741;28;20112;-74
2021/01/10 06:06:07;;;;;;;45.10;24.23;;;0.70;99.90;;;;;;4996768;28;20377;-73
2021/01/10 06:08:40;;;;;;;46.80;25.23;;;0.70;99.90;;;;;;4996305;28;20039;-72
2021/01/10 06:11:20;;;;;;;50.45;26.63;;;0.70;99.90;;;;;;5013746;28;20033;-73
2021/01/10 06:14:06;;;;;;;50.85;26.50;;;0.70;99.90;;;;;;5013688;28;20033;-73
2021/01/10 06:16:37;;;;;;;48.55;24.73;;;0.60;99.90;;;;;;5013744;28;20488;-74
2021/01/10 06:19:07;;;;;;;49.83;24.90;;;0.70;99.90;;;;;;5013674;28;20014;-73
2021/01/10 06:21:34;;;;;;;49.42;25.77;;;0.70;99.90;;;;;;5013617;28;20030;-74
2021/01/10 06:24:05;;;;;;;47.92;25.67;;;0.70;99.90;;;;;;4996189;28;20453;-74
2021/01/10 06:26:32;;;;;;;49.50;24.75;;;0.80;99.90;;;;;;4996032;28;20030;-73
2021/01/10 06:29:00;;;;;;;52.15;26.30;;;0.80;99.90;;;;;;5013860;28;20018;-73
2021/01/10 06:31:30;;;;;;;46.92;23.90;;;1.00;99.90;;;;;;5013598;28;20026;-73
2021/01/10 06:34:03;;;;;;;43.85;24.05;;;1.10;99.90;;;;;;5013465;28;20539;-73
2021/01/10 06:36:31;;;;;;;45.65;23.77;;;1.40;99.90;;;;;;5013606;28;20028;-74
2021/01/10 06:39:16;;;;;;;44.35;23.25;;;1.50;99.90;;;;;;5013389;28;20054;-73
2021/01/10 06:41:48;;;;;;;44.63;24.67;;;1.60;99.90;;;;;;5013418;28;20100;-73
2021/01/10 06:44:18;;;;;;;43.83;23.23;;;1.80;99.90;;;;;;4995569;28;20085;-74
2021/01/10 06:46:57;;;;;;;42.72;22.17;;;2.00;99.90;;;;;;4995562;28;20026;-73
2021/01/10 06:49:23;;;;;;;41.50;21.98;;;2.10;99.90;;;;;;4996130;28;20116;-73
2021/01/10 06:51:52;;;;;;;39.55;22.05;;;2.20;99.90;;;;;;5013348;28;20097;-72
2021/01/10 06:54:19;;;;;;;38.67;21.08;;;2.20;99.90;;;;;;5013476;28;20025;-72
2021/01/10 06:56:52;;;;;;;41.15;22.40;;;2.20;99.90;;;;;;4995320;28;20139;-73
2021/01/10 06:59:26;;;;;;;37.95;21.25;;;2.30;99.90;;;;;;5012932;28;20029;-73
2021/01/10 07:01:52;;;;;;;46.53;25.75;;;2.30;99.90;;;;;;5012800;28;20022;-73
2021/01/10 07:04:18;;;;;;;40.63;21.52;;;2.30;99.90;;;;;;5012774;28;20041;-73
2021/01/10 07:06:51;;;;;;;38.95;21.95;;;2.30;99.90;;;;;;5012563;28;20377;-73
2021/01/10 07:09:18;;;;;;;37.75;21.42;;;2.30;99.90;;;;;;5012755;28;20026;-73
2021/01/10 07:11:45;;;;;;;41.50;22.20;;;2.40;99.90;;;;;;5012699;28;20036;-72
2021/01/10 07:14:14;;;;;;;36.20;21.13;;;2.50;99.90;;;;;;4994921;28;20049;-73
2021/01/10 07:16:41;;;;;;;40.95;21.50;;;2.50;99.90;;;;;;5012793;28;20097;-74
2021/01/10 07:19:08;;;;;;;35.65;20.38;;;2.60;99.90;;;;;;5012556;28;20068;-74
2021/01/10 07:21:45;;;;;;;36.85;20.38;;;2.60;99.90;;;;;;5012537;28;20058;-74
2021/01/10 07:24:13;;;;;;;35.58;19.73;;;2.70;99.90;;;;;;5012518;28;20026;-75
2021/01/10 07:26:42;;;;;;;32.75;19.58;;;2.80;99.90;;;;;;5012464;28;20341;-75
2021/01/10 07:29:31;;;;;;;34.58;18.88;;;2.90;99.90;;;;;;5012116;28;20036;-75
2021/01/10 07:32:07;;;;;;;33.95;18.83;;;3.10;99.90;;;;;;5012192;28;20040;-75
2021/01/10 07:34:56;;;;;;;35.03;18.98;;;3.30;99.90;;;;;;5012277;28;20109;-74
2021/01/10 07:37:25;;;;;;;32.53;18.33;;;3.40;99.90;;;;;;5012188;28;20248;-74
2021/01/10 07:39:55;;;;;;;30.02;17.90;;;3.90;99.90;;;;;;5011994;28;20028;-75
2021/01/10 07:42:35;;;;;;;34.28;17.02;;;4.50;99.90;;;;;;5012084;28;20048;-74
2021/01/10 07:45:17;;;;;;;30.30;17.73;;;5.30;99.90;;;;;;5012085;28;20022;-74
2021/01/10 07:47:47;;;;;;;29.20;16.80;;;6.10;99.90;;;;;;4994263;28;20101;-73
2021/01/10 07:50:16;;;;;;;34.28;19.65;;;6.80;99.90;;;;;;4994028;28;20428;-73
2021/01/10 07:52:42;;;;;;;30.90;19.20;;;7.20;99.90;;;;;;5011888;28;20037;-74
2021/01/10 07:55:19;;;;;;;31.83;19.92;;;7.40;99.90;;;;;;5011952;28;20018;-73
2021/01/10 07:57:46;;;;;;;39.05;22.42;;;7.30;99.90;;;;;;5011867;28;20029;-74
2021/01/10 08:00:17;;;;;;;37.92;21.65;;;7.10;99.90;;;;;;5011820;28;20053;-73
2021/01/10 08:03:13;;;;;;;31.50;19.65;;;6.80;99.90;;;;;;5011851;28;20070;-74
2021/01/10 08:05:40;;;;;;;33.95;20.15;;;6.50;99.90;;;;;;5011371;28;20041;-74
2021/01/10 08:08:17;;;;;;;39.67;19.67;;;6.30;99.90;;;;;;5011797;28;20156;-74
2021/01/10 08:10:48;;;;;;;37.47;20.10;;;6.00;99.90;;;;;;5011829;28;20500;-74
2021/01/10 08:13:26;;;;;;;29.98;18.75;;;5.80;99.90;;;;;;5011874;28;20038;-74
2021/01/10 08:15:53;;;;;;;33.15;20.50;;;5.70;99.90;;;;;;5011606;28;20500;-75
2021/01/10 08:18:21;;;;;;;33.13;19.52;;;5.60;99.90;;;;;;5011820;28;20030;-74
2021/01/10 08:20:54;;;;;;;37.47;20.80;;;5.40;99.90;;;;;;5011769;28;20053;-75
2021/01/10 08:23:19;;;;;;;37.90;20.02;;;5.40;99.90;;;;;;5011755;28;20034;-75
2021/01/10 08:25:46;;;;;;;36.08;21.33;;;5.30;99.90;;;;;;5011543;28;20153;-74
2021/01/10 08:28:19;;;;;;;45.15;22.90;;;5.20;99.90;;;;;;5011458;28;20018;-76
2021/01/10 08:30:46;;;;;;;42.97;22.30;;;5.20;99.90;;;;;;4993999;28;20018;-75
2021/01/10 08:33:20;;;;;;;37.65;21.65;;;5.10;99.90;;;;;;5011959;28;20065;-79
2021/01/10 08:36:22;;;;;;;42.40;21.45;;;5.10;99.90;;;;;;5012268;28;20101;-77
2021/01/10 08:38:56;;;;;;;40.42;21.33;;;5.10;99.90;;;;;;5012189;28;20144;-77
2021/01/10 08:41:35;;;;;;;41.05;20.15;;;5.10;99.90;;;;;;4993682;28;20053;-75
2021/01/10 08:44:02;;;;;;;36.38;20.60;;;5.10;99.90;;;;;;5010925;28;20026;-76
2021/01/10 08:46:31;;;;;;;41.22;23.48;;;5.20;99.90;;;;;;5010930;28;20068;-76
2021/01/10 08:48:58;;;;;;;35.30;20.33;;;5.20;99.90;;;;;;5011002;28;20050;-75
2021/01/10 08:51:32;;;;;;;33.28;19.92;;;5.20;99.90;;;;;;4992969;28;20021;-75
2021/01/10 08:54:06;;;;;;;36.55;20.40;;;5.30;99.90;;;;;;5010698;28;20025;-76
2021/01/10 08:56:32;;;;;;;34.88;20.17;;;5.30;99.90;;;;;;5010215;28;20515;-75
2021/01/10 08:58:58;;;;;;;40.95;20.30;;;5.40;99.90;;;;;;5010797;28;20037;-75
2021/01/10 09:01:26;;;;;;;34.95;20.58;;;5.40;99.90;;;;;;5010641;28;20029;-75
2021/01/10 09:04:09;;;;;;;35.10;19.38;;;5.40;99.90;;;;;;5013789;28;20032;-75
2021/01/10 09:06:43;;;;;;;38.45;20.38;;;5.50;99.90;;;;;;5014411;28;20026;-75
2021/01/10 09:09:35;;;;;;;32.72;19.83;;;5.50;99.90;;;;;;5014197;28;20209;-75
2021/01/10 09:12:10;;;;;;;35.97;20.98;;;5.50;99.90;;;;;;5013956;28;20041;-75
2021/01/10 09:14:45;;;;;;;37.05;20.85;;;5.60;99.90;;;;;;5013714;28;20068;-75
2021/01/10 09:17:16;;;;;;;40.40;21.70;;;5.60;99.90;;;;;;4996537;28;20050;-76
2021/01/10 09:19:42;;;;;;;39.20;21.05;;;5.60;99.90;;;;;;5013842;28;20062;-75
2021/01/10 09:22:08;;;;;;;38.22;20.92;;;5.60;99.90;;;;;;5014109;28;20033;-76
2021/01/10 09:24:39;;;;;;;39.25;21.42;;;5.70;99.90;;;;;;4995623;28;20034;-75
2021/01/10 09:27:15;;;;;;;38.45;21.98;;;5.70;99.90;;;;;;5013540;28;20057;-77
2021/01/10 09:29:42;;;;;;;36.55;21.55;;;5.70;99.90;;;;;;4996142;28;20022;-77
2021/01/10 09:32:09;;;;;;;38.85;20.60;;;5.80;99.90;;;;;;5013651;28;20029;-76
2021/01/10 09:34:35;;;;;;;44.25;21.85;;;5.80;99.90;;;;;;5013574;28;20469;-76
2021/01/10 09:37:02;;;;;;;34.90;20.90;;;5.80;99.90;;;;;;5011507;28;20380;-75
2021/01/10 09:39:46;;;;;;;40.72;21.23;;;5.80;99.90;;;;;;5013822;28;20034;-76
2021/01/10 09:42:12;;;;;;;40.47;21.40;;;5.70;99.90;;;;;;4995863;28;20045;-76
2021/01/10 09:44:39;;;;;;;44.90;21.98;;;5.70;99.90;;;;;;4996161;28;20030;-77
2021/01/10 09:47:05;;;;;;;43.15;22.90;;;5.70;99.90;;;;;;5013672;28;20116;-75
2021/01/10 09:49:34;;;;;;;46.05;21.52;;;5.70;99.90;;;;;;5013718;28;20029;-77
2021/01/10 09:52:10;;;;;;;34.28;20.27;;;5.70;99.90;;;;;;5013350;28;20032;-77
2021/01/10 09:54:36;;;;;;;42.72;20.48;;;5.70;99.90;;;;;;4995222;28;20032;-77
2021/01/10 09:57:14;;;;;;;37.15;20.05;;;5.70;99.90;;;;;;5013404;28;20461;-77
2021/01/10 09:59:43;;;;;;;39.03;20.67;;;5.70;99.90;;;;;;5013447;28;20049;-77
2021/01/10 10:02:17;;;;;;;35.60;19.08;;;5.70;99.90;;;;;;5013437;28;20030;-77
2021/01/10 10:04:45;;;;;;;44.15;21.38;;;5.70;99.90;;;;;;5013314;28;20029;-78
2021/01/10 10:07:13;;;;;;;38.80;19.88;;;5.70;99.90;;;;;;5012970;28;20033;-78
2021/01/10 10:09:44;;;;;;;44.55;21.20;;;5.70;99.90;;;;;;5012900;28;20034;-77
2021/01/10 10:12:10;;;;;;;39.13;19.57;;;5.70;99.90;;;;;;5013003;28;20026;-78
2021/01/10 10:14:36;;;;;;;34.38;19.45;;;5.70;99.90;;;;;;5012507;28;20042;-76
2021/01/10 10:17:02;;;;;;;36.75;19.25;;;5.70;99.90;;;;;;4995134;28;20038;-77
2021/01/10 10:19:28;;;;;;;35.33;20.50;;;5.70;99.90;;;;;;5012861;28;20384;-78
2021/01/10 10:21:53;;;;;;;35.75;19.27;;;5.70;99.90;;;;;;5012730;28;20041;-77
2021/01/10 10:24:19;;;;;;;48.08;20.75;;;5.70;99.90;;;;;;5012403;28;20057;-77
2021/01/10 10:26:45;;;;;;;35.83;19.33;;;5.70;99.90;;;;;;5012682;28;20440;-77
2021/01/10 10:29:10;;;;;;;33.33;19.38;;;5.60;99.90;;;;;;5012652;28;20034;-77
2021/01/10 10:31:36;;;;;;;40.00;19.58;;;5.60;99.90;;;;;;5011979;28;20026;-77
2021/01/10 10:34:02;;;;;;;37.30;20.17;;;5.70;99.90;;;;;;5011762;28;20109;-77
2021/01/10 10:36:28;;;;;;;34.58;20.15;;;5.60;99.90;;;;;;5012225;28;20361;-80
2021/01/10 10:38:56;;;;;;;35.55;20.42;;;5.70;99.90;;;;;;5011450;28;20040;-78
2021/01/10 10:41:22;;;;;;;35.25;20.00;;;5.70;99.90;;;;;;5012304;28;20068;-77
2021/01/10 10:43:48;;;;;;;32.97;19.95;;;5.70;99.90;;;;;;5012772;28;20456;-77
2021/01/10 10:46:13;;;;;;;36.30;20.38;;;5.70;99.90;;;;;;5012644;28;20034;-77
2021/01/10 10:48:39;;;;;;;39.75;21.45;;;5.70;99.90;;;;;;4994321;28;20115;-77
2021/01/10 10:51:05;;;;;;;37.05;20.08;;;5.80;99.90;;;;;;5011550;28;20459;-78
2021/01/10 10:53:31;;;;;;;37.30;20.30;;;5.80;99.90;;;;;;5011451;28;20025;-77
2021/01/10 10:55:57;;;;;;;36.45;21.05;;;5.80;99.90;;;;;;5011951;28;20094;-77
2021/01/10 10:58:22;;;;;;;34.72;19.63;;;5.80;99.90;;;;;;5011635;28;20029;-77
2021/01/10 11:00:48;;;;;;;33.67;20.80;;;5.80;99.90;;;;;;5012003;28;20030;-78
2021/01/10 11:03:14;;;;;;;38.78;21.05;;;5.70;99.90;;;;;;5012146;28;20105;-78
2021/01/10 11:05:40;;;;;;;47.97;21.15;;;5.70;99.90;;;;;;4994327;28;20038;-77
2021/01/10 11:08:05;;;;;;;31.55;19.15;;;5.70;99.90;;;;;;5011318;28;20388;-78
2021/01/10 11:10:31;;;;;;;39.13;21.40;;;5.70;99.90;;;;;;5011345;28;20045;-78
2021/01/10 11:12:57;;;;;;;41.53;21.77;;;5.70;99.90;;;;;;5011366;28;20089;-77
2021/01/10 11:15:23;;;;;;;35.45;20.05;;;5.70;99.90;;;;;;5011487;28;20503;-81
2021/01/10 11:17:48;;;;;;;39.17;21.67;;;5.70;99.90;;;;;;4994202;28;20105;-78
2021/01/10 11:20:14;;;;;;;41.60;20.63;;;5.70;99.90;;;;;;5012222;28;20436;-79
2021/01/10 11:22:41;;;;;;;38.33;20.58;;;5.60;99.90;;;;;;4993922;28;20491;-77
2021/01/10 11:25:07;;;;;;;37.55;21.15;;;5.60;99.90;;;;;;5010645;28;20032;-76
2021/01/10 11:27:34;;;;;;;38.97;21.42;;;5.50;99.90;;;;;;4993793;28;20121;-78
2021/01/10 11:29:59;;;;;;;36.75;21.02;;;5.50;99.90;;;;;;5011716;28;20041;-78
2021/01/10 11:32:25;;;;;;;32.97;19.55;;;5.50;99.90;;;;;;4993283;28;20535;-78
2021/01/10 11:34:51;;;;;;;35.53;20.63;;;5.50;99.90;;;;;;5011321;28;20344;-78
2021/01/10 11:37:17;;;;;;;40.03;20.98;;;5.50;99.90;;;;;;5011128;28;20100;-77
2021/01/10 11:39:42;;;;;;;41.80;23.55;;;5.40;99.90;;;;;;5011070;28;20026;-76
2021/01/10 11:42:13;;;;;;;36.15;19.98;;;5.40;99.90;;;;;;4993519;28;20060;-77
2021/01/10 11:44:38;;;;;;;36.88;20.63;;;5.40;99.80;;;;;;5011100;28;20088;-77
2021/01/10 11:47:04;;;;;;;39.83;20.73;;;5.40;99.90;;;;;;5010980;28;20109;-77
2021/01/10 11:49:32;;;;;;;37.63;21.48;;;5.40;99.90;;;;;;5011247;28;20030;-76
2021/01/10 11:51:58;;;;;;;38.50;20.80;;;5.50;99.90;;;;;;5010811;28;20029;-77
2021/01/10 11:54:24;;;;;;;40.80;20.52;;;5.60;99.90;;;;;;5010996;28;20034;-77
2021/01/10 11:56:50;;;;;;;43.28;21.17;;;5.80;99.90;;;;;;5011322;28;20049;-79
2021/01/10 11:59:16;;;;;;;36.40;20.23;;;5.90;99.90;;;;;;4993420;28;20041;-77
2021/01/10 12:01:43;;;;;;;41.83;21.50;;;6.00;99.90;;;;;;5011557;28;20073;-77
2021/01/10 12:04:09;;;;;;;37.17;21.25;;;6.00;99.90;;;;;;5011300;28;20025;-78
2021/01/10 12:06:37;;;;;;;37.60;19.63;;;6.10;99.90;;;;;;4993191;28;20032;-78
2021/01/10 12:09:14;;;;;;;36.15;20.38;;;6.20;99.90;;;;;;4992938;28;20037;-76
2021/01/10 12:11:40;;;;;;;39.33;21.20;;;6.30;99.90;;;;;;5011075;28;20101;-74
2021/01/10 12:14:07;;;;;;;44.22;21.67;;;6.40;99.90;;;;;;5011037;28;20042;-77
2021/01/10 12:16:36;;;;;;;42.75;21.55;;;6.40;99.80;;;;;;4994311;28;20032;-77
2021/01/10 12:19:03;;;;;;;41.13;21.58;;;6.40;99.50;;;;;;4994454;28;20033;-79
2021/01/10 12:21:29;;;;;;;38.80;22.05;;;6.30;99.30;;;;;;5010996;28;20029;-77
2021/01/10 12:23:54;;;;;;;38.20;20.75;;;6.30;99.20;;;;;;4992697;28;20510;-78
2021/01/10 12:26:20;;;;;;;43.17;20.88;;;6.20;98.80;;;;;;5010793;28;20026;-78
2021/01/10 12:28:46;;;;;;;37.85;21.17;;;6.10;98.70;;;;;;4992645;28;20049;-77
2021/01/10 12:31:13;;;;;;;41.75;20.70;;;6.00;98.50;;;;;;5010398;28;20030;-78
2021/01/10 12:33:40;;;;;;;38.88;21.13;;;5.90;98.50;;;;;;5010602;28;20033;-77
2021/01/10 12:36:08;;;;;;;38.03;23.00;;;5.80;98.60;;;;;;5011104;28;20021;-78
2021/01/10 12:38:35;;;;;;;53.00;24.00;;;5.70;98.50;;;;;;4997187;28;20030;-77
2021/01/10 12:41:00;;;;;;;44.13;21.67;;;5.70;98.60;;;;;;5014742;28;20018;-77